Havdrup, Denmark
Current Conditions -  °F | °C
As of 9:50 PM on Monday 22 Dec 2014 (Local Time) from EKRK Reporting Station
Broken Clouds Broken Clouds  
Wind Chill: 37°   Ceiling: 17000
Heat Index: 45°   Visibility: 6mi
Dew Point: 41°   Wind: 16mph
Humidity: 87%   Direction: 260°W
Pressure: 29.56"   Gusts: NA
Location:  55.54°N, 12.12°E
Report Text: EKRK 222050Z AUTO 26014KT 9999NDV FEW021/// BKN170///07/05 Q1001
Loading
Personal Weather Stations






























Interactive Weather Map New forecast layout! Learn more

10-Day Weather Forecast

Advertisements
Track Severe Weather on mobile